createdAt,value
2022-07-30T00:01:46.046Z,19.50
2022-07-30T00:06:40.637Z,19.60
2022-07-30T00:09:07.628Z,19.70
2022-07-30T00:11:34.611Z,19.60
2022-07-30T00:14:01.810Z,19.60
2022-07-30T00:16:29.053Z,19.50
2022-07-30T00:18:55.988Z,19.60
2022-07-30T00:21:36.223Z,19.50
2022-07-30T00:24:06.531Z,19.60
2022-07-30T00:26:33.698Z,19.40
2022-07-30T00:29:01.549Z,19.50
2022-07-30T00:31:28.592Z,19.40
2022-07-30T00:33:55.584Z,19.40
2022-07-30T00:36:22.942Z,19.40
2022-07-30T00:38:50.089Z,19.50
2022-07-30T00:41:17.315Z,19.50
2022-07-30T00:43:44.654Z,19.40
2022-07-30T00:46:11.841Z,19.50
2022-07-30T00:48:38.975Z,19.40
2022-07-30T00:51:05.893Z,19.40
2022-07-30T00:53:33.822Z,19.40
2022-07-30T00:56:01.863Z,19.30
2022-07-30T00:58:28.842Z,19.30
2022-07-30T01:00:55.800Z,19.30
2022-07-30T01:03:22.787Z,19.20
2022-07-30T01:05:50.231Z,19.20
2022-07-30T01:08:17.242Z,19.10
2022-07-30T01:10:44.436Z,19.00
2022-07-30T01:13:11.523Z,18.90
2022-07-30T01:15:38.932Z,19.00
2022-07-30T01:18:10.664Z,19.00
2022-07-30T01:20:45.524Z,19.10
2022-07-30T01:23:25.209Z,19.20
2022-07-30T01:26:00.500Z,19.10
2022-07-30T01:28:32.278Z,19.30
2022-07-30T01:31:00.111Z,19.10
2022-07-30T01:33:28.912Z,19.10
2022-07-30T01:35:57.096Z,19.10
2022-07-30T01:38:26.099Z,19.10
2022-07-30T01:40:54.591Z,19.00
2022-07-30T01:43:24.234Z,19.00
2022-07-30T01:45:53.240Z,19.00
2022-07-30T01:48:24.913Z,18.90
2022-07-30T01:50:54.990Z,18.80
2022-07-30T01:53:25.499Z,18.80
2022-07-30T01:55:55.033Z,18.90
2022-07-30T01:58:24.663Z,18.80
2022-07-30T02:00:52.147Z,18.80
2022-07-30T02:03:19.419Z,18.80
2022-07-30T02:05:57.841Z,18.90
2022-07-30T02:09:10.557Z,18.70
2022-07-30T02:12:03.223Z,18.70
2022-07-30T02:14:50.657Z,18.60
2022-07-30T02:17:30.189Z,18.70
2022-07-30T02:19:59.114Z,18.70
2022-07-30T02:22:31.158Z,18.60
2022-07-30T02:25:01.192Z,18.60
2022-07-30T02:27:31.108Z,18.60
2022-07-30T02:30:00.522Z,18.60
2022-07-30T02:32:30.447Z,18.60
2022-07-30T02:35:01.764Z,18.70
2022-07-30T02:37:42.872Z,18.70
2022-07-30T02:40:17.502Z,18.70
2022-07-30T02:42:47.001Z,18.70
2022-07-30T02:45:17.873Z,18.70
2022-07-30T02:47:48.443Z,18.70
2022-07-30T02:50:16.519Z,18.70
2022-07-30T02:52:45.016Z,18.70
2022-07-30T02:55:13.445Z,18.70
2022-07-30T02:57:43.373Z,18.70
2022-07-30T03:00:12.058Z,18.70
2022-07-30T03:02:43.665Z,18.70
2022-07-30T03:05:12.235Z,18.60
2022-07-30T03:07:40.514Z,18.60
2022-07-30T03:10:08.659Z,18.50
2022-07-30T03:12:37.681Z,18.50
2022-07-30T03:15:05.199Z,18.40
2022-07-30T03:17:37.555Z,18.50
2022-07-30T03:20:09.908Z,18.50
2022-07-30T03:22:42.370Z,18.40
2022-07-30T03:25:10.780Z,18.40
2022-07-30T03:27:38.657Z,18.50
2022-07-30T03:30:07.366Z,18.50
2022-07-30T03:32:37.036Z,18.40
2022-07-30T03:35:08.772Z,18.50
2022-07-30T03:37:45.172Z,18.50
2022-07-30T03:40:13.767Z,18.60
2022-07-30T03:42:41.033Z,18.60
2022-07-30T03:45:09.492Z,18.60
2022-07-30T03:47:39.748Z,18.60
2022-07-30T03:50:07.315Z,18.50
2022-07-30T03:52:37.116Z,18.50
2022-07-30T03:55:09.873Z,18.60
2022-07-30T03:57:37.554Z,18.50
2022-07-30T04:00:08.338Z,18.50
2022-07-30T04:02:42.873Z,18.60
2022-07-30T04:05:10.145Z,18.60
2022-07-30T04:07:41.440Z,18.60
2022-07-30T04:10:13.110Z,18.60
2022-07-30T04:12:40.014Z,18.50
2022-07-30T04:16:05.740Z,18.50
2022-07-30T04:18:01.482Z,18.50
2022-07-30T04:20:33.158Z,18.50
2022-07-30T04:23:01.479Z,18.50
2022-07-30T04:25:29.133Z,18.50
2022-07-30T04:28:02.766Z,18.50
2022-07-30T04:30:31.183Z,18.50
2022-07-30T04:32:58.109Z,18.50
2022-07-30T04:35:51.158Z,18.50
2022-07-30T04:38:17.844Z,18.40
2022-07-30T04:40:44.713Z,18.50
2022-07-30T04:43:12.034Z,18.40
2022-07-30T04:45:40.468Z,18.50
2022-07-30T04:48:08.042Z,18.50
2022-07-30T04:50:38.621Z,18.40
2022-07-30T04:53:05.890Z,18.50
2022-07-30T04:55:34.439Z,18.60
2022-07-30T04:58:02.772Z,18.60
2022-07-30T05:00:32.523Z,18.60
2022-07-30T05:03:01.836Z,18.60
2022-07-30T05:05:32.637Z,18.80
2022-07-30T05:08:01.402Z,18.80
2022-07-30T05:10:29.590Z,18.80
2022-07-30T05:12:56.850Z,18.80
2022-07-30T05:15:23.894Z,18.70
2022-07-30T05:18:04.297Z,18.70
2022-07-30T05:20:31.199Z,18.70
2022-07-30T05:22:58.176Z,18.80
2022-07-30T05:25:25.292Z,18.80
2022-07-30T05:27:52.731Z,18.70
2022-07-30T05:30:19.805Z,18.70
2022-07-30T05:32:53.768Z,18.80
2022-07-30T05:35:23.487Z,18.80
2022-07-30T05:37:50.488Z,18.80
2022-07-30T05:40:17.540Z,18.80
2022-07-30T05:42:44.839Z,18.80
2022-07-30T05:45:11.768Z,19.00
2022-07-30T05:47:38.685Z,19.00
2022-07-30T05:50:06.063Z,19.00
2022-07-30T05:52:34.156Z,19.10
2022-07-30T05:55:01.147Z,19.10
2022-07-30T05:57:28.024Z,19.10
2022-07-30T05:59:54.889Z,19.20
2022-07-30T06:02:24.470Z,19.20
2022-07-30T06:04:51.868Z,19.20
2022-07-30T06:07:18.898Z,19.40
2022-07-30T06:09:46.040Z,19.50
2022-07-30T06:12:12.913Z,19.60
2022-07-30T06:14:39.797Z,19.60
2022-07-30T06:17:06.854Z,19.60
2022-07-30T06:19:33.741Z,19.60
2022-07-30T06:22:01.574Z,19.70
2022-07-30T06:24:33.419Z,19.70
2022-07-30T06:27:00.672Z,19.80
2022-07-30T06:29:27.800Z,19.80
2022-07-30T06:31:54.789Z,19.90
2022-07-30T06:34:21.773Z,20.00
2022-07-30T06:36:49.354Z,19.90
2022-07-30T06:39:56.304Z,19.90
2022-07-30T06:42:04.414Z,20.00
2022-07-30T06:44:31.577Z,20.10
2022-07-30T06:47:00.873Z,20.20
2022-07-30T06:49:32.604Z,20.20
2022-07-30T06:51:59.660Z,20.20
2022-07-30T06:54:26.592Z,20.30
2022-07-30T06:56:53.536Z,20.30
2022-07-30T06:59:20.529Z,20.30
2022-07-30T07:01:47.867Z,20.30
2022-07-30T07:04:15.030Z,20.30
2022-07-30T07:06:42.027Z,20.40
2022-07-30T07:09:08.885Z,20.30
2022-07-30T07:11:35.813Z,20.30
2022-07-30T07:14:04.739Z,20.40
2022-07-30T07:16:31.904Z,20.50
2022-07-30T07:18:58.929Z,20.50
2022-07-30T07:21:25.838Z,20.50
2022-07-30T07:23:52.747Z,20.70
2022-07-30T07:26:19.752Z,20.70
2022-07-30T07:28:46.928Z,20.80
2022-07-30T07:32:05.526Z,21.00
2022-07-30T07:34:00.879Z,21.20
2022-07-30T07:36:28.530Z,21.20
2022-07-30T07:38:55.653Z,21.40
2022-07-30T07:41:23.004Z,21.50
2022-07-30T07:43:49.940Z,21.60
2022-07-30T07:46:33.716Z,21.70
2022-07-30T07:49:01.982Z,21.90
2022-07-30T07:51:47.494Z,22.00
2022-07-30T07:54:21.976Z,22.10
2022-07-30T07:56:53.054Z,22.10
2022-07-30T07:59:20.484Z,22.20
2022-07-30T08:01:49.825Z,22.20
2022-07-30T08:04:17.417Z,22.40
2022-07-30T08:06:44.380Z,22.50
2022-07-30T08:09:11.296Z,22.60
2022-07-30T08:11:38.241Z,22.70
2022-07-30T08:14:05.147Z,22.80
2022-07-30T08:16:32.153Z,22.90
2022-07-30T08:18:59.166Z,22.90
2022-07-30T08:21:26.083Z,22.80
2022-07-30T08:23:53.042Z,22.80
2022-07-30T08:26:20.218Z,22.80
2022-07-30T08:28:47.468Z,22.80
2022-07-30T08:31:14.503Z,22.80
2022-07-30T08:33:41.429Z,22.90
2022-07-30T08:36:09.444Z,22.80
2022-07-30T08:38:37.557Z,22.60
2022-07-30T08:41:04.719Z,22.70
2022-07-30T08:43:33.226Z,22.70
2022-07-30T08:46:01.435Z,22.70
2022-07-30T08:48:29.500Z,22.60
2022-07-30T08:50:57.049Z,22.50
2022-07-30T08:53:25.326Z,22.50
2022-07-30T08:55:55.643Z,22.40
2022-07-30T08:58:30.786Z,22.50
2022-07-30T09:00:58.348Z,22.40
2022-07-30T09:03:25.309Z,22.30
2022-07-30T09:05:52.818Z,22.40
2022-07-30T09:08:21.170Z,22.30
2022-07-30T09:10:52.885Z,22.30
2022-07-30T09:13:35.416Z,22.30
2022-07-30T09:16:02.944Z,22.20
2022-07-30T09:18:34.126Z,22.30
2022-07-30T09:21:13.565Z,22.30
2022-07-30T09:23:41.096Z,22.20
2022-07-30T09:26:07.974Z,22.10
2022-07-30T09:28:34.988Z,21.90
2022-07-30T09:31:02.145Z,21.90
2022-07-30T09:33:43.724Z,21.80
2022-07-30T09:36:13.717Z,21.70
2022-07-30T09:38:54.087Z,21.90
2022-07-30T09:41:39.976Z,21.90
2022-07-30T09:44:07.463Z,21.90
2022-07-30T09:46:51.049Z,21.90
2022-07-30T09:49:24.186Z,21.90
2022-07-30T09:51:55.787Z,21.80
2022-07-30T09:54:25.716Z,21.80
2022-07-30T09:57:26.253Z,21.60
2022-07-30T09:59:56.621Z,21.60
2022-07-30T10:02:33.588Z,21.60
2022-07-30T10:05:15.054Z,21.50
2022-07-30T10:07:51.164Z,21.60
2022-07-30T10:10:25.228Z,21.70
2022-07-30T10:12:56.881Z,21.70
2022-07-30T10:15:28.791Z,21.70
2022-07-30T10:17:56.332Z,21.70
2022-07-30T10:20:24.752Z,21.60
2022-07-30T10:22:52.678Z,21.60
2022-07-30T10:25:22.991Z,21.70
2022-07-30T10:27:51.141Z,21.80
2022-07-30T10:30:27.992Z,21.80
2022-07-30T10:32:57.900Z,21.90
2022-07-30T10:35:34.392Z,22.00
2022-07-30T10:38:13.767Z,22.10
2022-07-30T10:41:04.944Z,22.00
2022-07-30T10:43:54.015Z,22.00
2022-07-30T10:46:29.282Z,22.00
2022-07-30T10:49:07.548Z,22.20
2022-07-30T10:51:55.157Z,22.20
2022-07-30T10:54:39.178Z,22.30
2022-07-30T10:57:14.867Z,22.20
2022-07-30T10:59:50.462Z,22.40
2022-07-30T11:02:25.465Z,22.50
2022-07-30T11:05:18.014Z,22.60
2022-07-30T11:07:47.338Z,22.70
2022-07-30T11:10:50.142Z,22.70
2022-07-30T11:13:17.071Z,22.70
2022-07-30T11:15:56.894Z,22.80
2022-07-30T11:18:28.823Z,22.80
2022-07-30T11:21:22.630Z,22.90
2022-07-30T11:23:54.759Z,22.90
2022-07-30T11:26:46.741Z,23.00
2022-07-30T11:29:33.747Z,23.10
2022-07-30T11:32:32.434Z,23.30
2022-07-30T11:35:12.214Z,23.30
2022-07-30T11:38:00.927Z,23.40
2022-07-30T11:40:33.329Z,23.50
2022-07-30T11:43:35.098Z,23.50
2022-07-30T11:46:29.613Z,23.70
2022-07-30T11:49:09.018Z,23.40
2022-07-30T11:51:41.941Z,23.40
2022-07-30T11:54:13.086Z,23.50
2022-07-30T11:56:54.633Z,23.60
2022-07-30T11:59:21.643Z,23.90
2022-07-30T12:01:53.867Z,23.80
2022-07-30T12:04:20.922Z,23.90
2022-07-30T12:06:48.875Z,24.00
2022-07-30T12:09:27.431Z,24.00
2022-07-30T12:11:55.590Z,24.30
2022-07-30T12:14:22.550Z,24.60
2022-07-30T12:16:51.961Z,24.90
2022-07-30T12:19:19.031Z,25.30
2022-07-30T12:21:49.593Z,26.90
2022-07-30T12:24:25.474Z,25.90
2022-07-30T12:26:52.501Z,25.90
2022-07-30T12:29:19.583Z,26.20
2022-07-30T12:31:47.751Z,26.50
2022-07-30T12:34:21.859Z,27.00
2022-07-30T12:36:49.123Z,27.20
2022-07-30T12:39:23.815Z,27.40
2022-07-30T12:41:52.827Z,27.40
2022-07-30T12:44:40.729Z,27.30
2022-07-30T12:47:20.221Z,27.20
2022-07-30T12:49:49.902Z,26.50
2022-07-30T12:52:35.904Z,26.20
2022-07-30T12:55:10.971Z,25.80
2022-07-30T12:58:07.985Z,25.80
2022-07-30T13:00:44.711Z,25.70
2022-07-30T13:03:29.173Z,25.50
2022-07-30T13:05:57.210Z,25.40
2022-07-30T13:08:53.497Z,25.70
2022-07-30T13:11:23.146Z,25.70
2022-07-30T13:13:51.173Z,25.70
2022-07-30T13:16:19.535Z,25.60
2022-07-30T13:18:47.300Z,25.40
2022-07-30T13:21:14.257Z,25.40
2022-07-30T13:23:42.121Z,25.50
2022-07-30T13:26:09.946Z,25.40
2022-07-30T13:28:36.923Z,25.20
2022-07-30T13:31:04.554Z,25.30
2022-07-30T13:33:31.834Z,25.50
2022-07-30T13:35:59.276Z,25.80
2022-07-30T13:38:27.115Z,25.80
2022-07-30T13:40:57.938Z,26.10
2022-07-30T13:43:27.804Z,26.40
2022-07-30T13:45:54.799Z,26.80
2022-07-30T13:48:27.096Z,26.80
2022-07-30T13:50:54.018Z,26.80
2022-07-30T13:53:20.912Z,26.50
2022-07-30T13:55:47.851Z,26.20
2022-07-30T13:58:15.342Z,26.00
2022-07-30T14:00:45.168Z,25.70
2022-07-30T14:03:12.502Z,25.60
2022-07-30T14:05:42.070Z,25.60
2022-07-30T14:08:10.842Z,25.40
2022-07-30T14:10:39.892Z,25.50
2022-07-30T14:13:08.315Z,25.30
2022-07-30T14:15:35.241Z,25.40
2022-07-30T14:18:02.593Z,25.30
2022-07-30T14:20:30.648Z,25.40
2022-07-30T14:22:57.953Z,25.20
2022-07-30T14:25:25.368Z,25.20
2022-07-30T14:27:52.388Z,25.10
2022-07-30T14:30:19.796Z,25.00
2022-07-30T14:32:46.825Z,25.00
2022-07-30T14:35:13.768Z,24.80
2022-07-30T14:37:40.926Z,24.80
2022-07-30T14:40:10.089Z,24.80
2022-07-30T14:42:37.219Z,24.70
2022-07-30T14:45:05.003Z,24.50
2022-07-30T14:47:32.041Z,24.50
2022-07-30T14:49:59.346Z,24.40
2022-07-30T14:52:26.319Z,24.50
2022-07-30T14:54:53.482Z,24.50
2022-07-30T14:57:20.489Z,24.40
2022-07-30T14:59:47.376Z,24.40
2022-07-30T15:04:42.554Z,24.20
2022-07-30T15:07:09.456Z,24.30
2022-07-30T15:09:36.404Z,24.30
2022-07-30T15:12:09.088Z,24.30
2022-07-30T15:14:42.143Z,24.30
2022-07-30T15:17:10.713Z,24.30
2022-07-30T15:19:37.608Z,24.30
2022-07-30T15:22:17.989Z,24.30
2022-07-30T15:24:44.841Z,24.30
2022-07-30T15:27:11.838Z,24.30
2022-07-30T15:29:38.901Z,24.30
2022-07-30T15:32:06.606Z,24.30
2022-07-30T15:34:35.015Z,24.30
2022-07-30T15:37:03.370Z,24.30
2022-07-30T15:39:33.131Z,24.30
2022-07-30T15:42:02.513Z,24.40
2022-07-30T15:44:29.931Z,24.40
2022-07-30T15:46:56.906Z,24.50
2022-07-30T15:49:24.040Z,24.60
2022-07-30T15:51:51.938Z,24.70
2022-07-30T15:54:23.235Z,24.60
2022-07-30T15:56:51.048Z,24.60
2022-07-30T15:59:18.376Z,24.60
2022-07-30T16:01:45.693Z,24.60
2022-07-30T16:04:19.854Z,24.60
2022-07-30T16:06:48.169Z,24.50
2022-07-30T16:09:16.280Z,24.50
2022-07-30T16:11:43.309Z,24.60
2022-07-30T16:14:10.865Z,24.50
2022-07-30T16:16:38.238Z,24.50
2022-07-30T16:19:05.202Z,24.60
2022-07-30T16:21:32.508Z,24.40
2022-07-30T16:23:59.431Z,24.50
2022-07-30T16:26:26.334Z,24.50
2022-07-30T16:28:53.921Z,24.50
2022-07-30T16:31:20.896Z,24.40
2022-07-30T16:33:47.801Z,24.40
2022-07-30T16:36:15.111Z,24.40
2022-07-30T16:38:41.995Z,24.40
2022-07-30T16:41:13.414Z,24.40
2022-07-30T16:43:41.252Z,24.40
2022-07-30T16:46:08.481Z,24.40
2022-07-30T16:48:35.402Z,24.40
2022-07-30T16:51:02.750Z,24.40
2022-07-30T16:53:30.142Z,24.30
2022-07-30T16:55:58.491Z,24.30
2022-07-30T16:58:28.446Z,24.30
2022-07-30T17:00:58.418Z,24.20
2022-07-30T17:03:25.928Z,24.10
2022-07-30T17:05:53.556Z,24.10
2022-07-30T17:08:25.173Z,24.10
2022-07-30T17:10:52.922Z,24.00
2022-07-30T17:13:20.419Z,24.00
2022-07-30T17:15:47.585Z,23.90
2022-07-30T17:18:15.183Z,23.80
2022-07-30T17:20:42.751Z,23.80
2022-07-30T17:23:09.689Z,23.80
2022-07-30T17:25:36.642Z,23.70
2022-07-30T17:28:03.881Z,23.80
2022-07-30T17:30:31.199Z,23.80
2022-07-30T17:32:58.843Z,23.70
2022-07-30T17:35:26.422Z,23.70
2022-07-30T17:37:53.699Z,23.70
2022-07-30T17:40:28.176Z,23.60
2022-07-30T17:43:04.145Z,23.60
2022-07-30T17:45:33.075Z,23.60
2022-07-30T17:48:01.815Z,23.50
2022-07-30T17:50:29.991Z,23.50
2022-07-30T17:52:56.978Z,23.50
2022-07-30T17:55:24.584Z,23.50
2022-07-30T17:57:51.511Z,23.50
2022-07-30T18:00:18.538Z,23.50
2022-07-30T18:02:45.572Z,23.40
2022-07-30T18:05:15.593Z,23.30
2022-07-30T18:07:43.803Z,23.20
2022-07-30T18:10:11.793Z,23.20
2022-07-30T18:12:38.868Z,23.10
2022-07-30T18:15:15.839Z,22.70
2022-07-30T18:17:42.777Z,22.30
2022-07-30T18:20:10.235Z,21.80
2022-07-30T18:22:37.492Z,21.40
2022-07-30T18:25:07.615Z,21.10
2022-07-30T18:27:35.078Z,20.70
2022-07-30T18:30:02.014Z,20.60
2022-07-30T18:32:29.021Z,20.40
2022-07-30T18:34:55.956Z,20.10
2022-07-30T18:37:22.854Z,20.00
2022-07-30T18:39:49.991Z,19.90
2022-07-30T18:42:16.850Z,19.90
2022-07-30T18:44:43.908Z,19.70
2022-07-30T18:47:11.054Z,19.60
2022-07-30T18:49:38.275Z,19.60
2022-07-30T18:52:07.447Z,19.50
2022-07-30T18:54:35.334Z,19.50
2022-07-30T18:57:02.363Z,19.50
2022-07-30T18:59:29.899Z,19.40
2022-07-30T19:01:56.835Z,19.50
2022-07-30T19:04:23.824Z,19.40
2022-07-30T19:06:50.893Z,19.20
2022-07-30T19:09:18.366Z,19.20
2022-07-30T19:11:46.367Z,19.40
2022-07-30T19:14:14.367Z,19.40
2022-07-30T19:16:42.404Z,19.40
2022-07-30T19:19:10.405Z,19.40
2022-07-30T19:21:37.370Z,19.40
2022-07-30T19:24:04.838Z,19.30
2022-07-30T19:26:32.068Z,19.30
2022-07-30T19:28:59.113Z,19.20
2022-07-30T19:31:26.636Z,19.30
2022-07-30T19:33:53.558Z,19.30
2022-07-30T19:36:23.496Z,19.20
2022-07-30T19:38:56.472Z,19.20
2022-07-30T19:41:23.381Z,19.20
2022-07-30T19:43:57.786Z,19.20
2022-07-30T19:46:25.573Z,19.20
2022-07-30T19:48:52.641Z,19.20
2022-07-30T19:51:20.509Z,19.20
2022-07-30T19:53:48.384Z,19.20
2022-07-30T19:56:15.351Z,19.20
2022-07-30T19:58:42.400Z,19.20
2022-07-30T20:01:14.612Z,19.10
2022-07-30T20:03:42.355Z,19.10
2022-07-30T20:06:15.419Z,19.10
2022-07-30T20:08:44.866Z,19.00
2022-07-30T20:11:14.102Z,19.00
2022-07-30T20:13:48.629Z,18.90
2022-07-30T20:16:16.396Z,18.90
2022-07-30T20:18:46.019Z,18.90
2022-07-30T20:21:15.853Z,18.90
2022-07-30T20:23:44.653Z,18.90
2022-07-30T20:26:14.244Z,18.90
2022-07-30T20:28:52.470Z,18.90
2022-07-30T20:31:20.577Z,18.90
2022-07-30T20:33:50.136Z,18.90
2022-07-30T20:36:18.451Z,18.90
2022-07-30T20:38:47.100Z,18.90
2022-07-30T20:41:14.813Z,18.90
2022-07-30T20:43:51.507Z,18.90
2022-07-30T20:46:20.017Z,19.00
2022-07-30T20:48:47.037Z,18.90
2022-07-30T20:51:14.127Z,19.00
2022-07-30T20:53:45.164Z,19.00
2022-07-30T20:56:13.466Z,19.00
2022-07-30T20:58:41.023Z,19.00
2022-07-30T21:01:08.264Z,19.00
2022-07-30T21:03:43.570Z,19.00
2022-07-30T21:06:15.541Z,19.00
2022-07-30T21:08:42.422Z,19.10
2022-07-30T21:11:09.638Z,19.00
2022-07-30T21:13:36.877Z,19.00
2022-07-30T21:16:15.912Z,19.10
2022-07-30T21:18:50.192Z,19.10
2022-07-30T21:21:30.557Z,19.10
2022-07-30T21:24:06.657Z,19.10
2022-07-30T21:26:40.554Z,19.00
2022-07-30T21:29:08.683Z,19.00
2022-07-30T21:32:01.447Z,19.00
2022-07-30T21:34:26.151Z,19.00
2022-07-30T21:36:54.308Z,19.00
2022-07-30T21:39:28.873Z,18.90
2022-07-30T21:41:56.384Z,18.90
2022-07-30T21:44:23.832Z,18.90
2022-07-30T21:46:50.840Z,19.00
2022-07-30T21:49:17.895Z,19.00
2022-07-30T21:51:44.886Z,19.00
2022-07-30T21:54:13.882Z,19.00
2022-07-30T21:56:44.032Z,19.10
2022-07-30T21:59:11.472Z,19.10
2022-07-30T22:01:38.757Z,19.10
2022-07-30T22:04:14.736Z,19.10
2022-07-30T22:06:43.755Z,19.00
2022-07-30T22:09:18.084Z,19.00
2022-07-30T22:11:46.180Z,19.00
2022-07-30T22:14:13.981Z,18.90
2022-07-30T22:16:46.165Z,19.00
2022-07-30T22:19:14.632Z,19.00
2022-07-30T22:21:46.296Z,19.00
2022-07-30T22:24:28.707Z,18.90
2022-07-30T22:27:09.819Z,19.00
2022-07-30T22:29:38.238Z,18.90
2022-07-30T22:32:07.986Z,18.90
2022-07-30T22:34:35.094Z,18.90
2022-07-30T22:37:02.053Z,18.90
2022-07-30T22:42:16.168Z,18.90
2022-07-30T22:44:45.996Z,19.00
2022-07-30T22:47:18.799Z,19.00
2022-07-30T22:49:56.340Z,19.00
2022-07-30T22:52:29.230Z,19.00
2022-07-30T22:57:44.720Z,19.00
2022-07-30T23:00:26.980Z,19.00
2022-07-30T23:02:56.127Z,19.10
2022-07-30T23:05:23.801Z,19.10
2022-07-30T23:07:50.834Z,19.10
2022-07-30T23:10:20.349Z,19.20
2022-07-30T23:12:30.761Z,19.00
2022-07-30T23:12:32.057Z,18.80
2022-07-30T23:12:51.202Z,19.10
2022-07-30T23:15:19.891Z,19.10
2022-07-30T23:17:47.745Z,19.10
2022-07-30T23:20:18.491Z,19.00
2022-07-30T23:22:45.390Z,19.00
2022-07-30T23:25:13.470Z,18.90
2022-07-30T23:27:41.175Z,19.00
2022-07-30T23:30:10.305Z,18.90
2022-07-30T23:32:38.132Z,18.80
2022-07-30T23:35:06.890Z,18.80
2022-07-30T23:37:49.142Z,18.90
2022-07-30T23:40:17.698Z,18.90
2022-07-30T23:42:44.641Z,18.90
2022-07-30T23:45:11.702Z,18.90
2022-07-30T23:47:56.536Z,18.90
2022-07-30T23:50:25.708Z,19.00
2022-07-30T23:52:52.882Z,18.90
2022-07-30T23:55:19.886Z,18.90
2022-07-30T23:57:46.897Z,18.90
